sensor_id;sensor_type;location;lat;lon;timestamp;P1;durP1;ratioP1;P2;durP2;ratioP2
22543;SDS011;11438;52.044;8.716;2022-11-15T00:01:22;7.28;;;3.95;;
22543;SDS011;11438;52.044;8.716;2022-11-15T00:03:50;5.65;;;3.60;;
22543;SDS011;11438;52.044;8.716;2022-11-15T00:06:16;5.15;;;3.35;;
22543;SDS011;11438;52.044;8.716;2022-11-15T00:08:42;5.10;;;3.65;;
22543;SDS011;11438;52.044;8.716;2022-11-15T00:11:08;5.28;;;3.63;;
22543;SDS011;11438;52.044;8.716;2022-11-15T00:13:36;5.13;;;3.50;;
22543;SDS011;11438;52.044;8.716;2022-11-15T00:16:01;6.43;;;3.75;;
22543;SDS011;11438;52.044;8.716;2022-11-15T00:18:27;5.88;;;3.70;;
22543;SDS011;11438;52.044;8.716;2022-11-15T00:20:54;6.18;;;3.90;;
22543;SDS011;11438;52.044;8.716;2022-11-15T00:23:19;5.53;;;3.60;;
22543;SDS011;11438;52.044;8.716;2022-11-15T00:25:45;6.40;;;3.85;;
22543;SDS011;11438;52.044;8.716;2022-11-15T00:28:11;4.95;;;3.30;;
22543;SDS011;11438;52.044;8.716;2022-11-15T00:30:36;6.43;;;3.72;;
22543;SDS011;11438;52.044;8.716;2022-11-15T00:33:03;5.05;;;3.78;;
22543;SDS011;11438;52.044;8.716;2022-11-15T00:35:33;5.40;;;4.00;;
22543;SDS011;11438;52.044;8.716;2022-11-15T00:37:59;5.82;;;3.50;;
22543;SDS011;11438;52.044;8.716;2022-11-15T00:40:26;5.25;;;3.85;;
22543;SDS011;11438;52.044;8.716;2022-11-15T00:42:51;5.53;;;3.97;;
22543;SDS011;11438;52.044;8.716;2022-11-15T00:45:17;5.18;;;3.50;;
22543;SDS011;11438;52.044;8.716;2022-11-15T00:47:45;4.63;;;3.50;;
22543;SDS011;11438;52.044;8.716;2022-11-15T00:50:11;6.35;;;3.75;;
22543;SDS011;11438;52.044;8.716;2022-11-15T00:52:37;5.57;;;3.53;;
22543;SDS011;11438;52.044;8.716;2022-11-15T00:55:03;6.68;;;3.72;;
22543;SDS011;11438;52.044;8.716;2022-11-15T00:57:29;8.65;;;3.97;;
22543;SDS011;11438;52.044;8.716;2022-11-15T00:59:54;6.28;;;3.90;;
22543;SDS011;11438;52.044;8.716;2022-11-15T01:02:20;6.65;;;3.63;;
22543;SDS011;11438;52.044;8.716;2022-11-15T01:04:45;5.65;;;3.60;;
22543;SDS011;11438;52.044;8.716;2022-11-15T01:07:11;5.50;;;3.47;;
22543;SDS011;11438;52.044;8.716;2022-11-15T01:09:37;7.10;;;4.28;;
22543;SDS011;11438;52.044;8.716;2022-11-15T01:12:02;6.93;;;4.03;;
22543;SDS011;11438;52.044;8.716;2022-11-15T01:14:28;4.90;;;3.72;;
22543;SDS011;11438;52.044;8.716;2022-11-15T01:16:54;5.65;;;3.55;;
22543;SDS011;11438;52.044;8.716;2022-11-15T01:19:19;7.88;;;4.03;;
22543;SDS011;11438;52.044;8.716;2022-11-15T01:21:45;8.63;;;3.60;;
22543;SDS011;11438;52.044;8.716;2022-11-15T01:24:13;5.60;;;3.60;;
22543;SDS011;11438;52.044;8.716;2022-11-15T01:26:38;4.90;;;3.55;;
22543;SDS011;11438;52.044;8.716;2022-11-15T01:29:04;6.60;;;3.70;;
22543;SDS011;11438;52.044;8.716;2022-11-15T01:31:30;6.35;;;4.00;;
22543;SDS011;11438;52.044;8.716;2022-11-15T01:33:55;7.10;;;4.20;;
22543;SDS011;11438;52.044;8.716;2022-11-15T01:36:21;5.53;;;4.15;;
22543;SDS011;11438;52.044;8.716;2022-11-15T01:38:57;10.98;;;4.63;;
22543;SDS011;11438;52.044;8.716;2022-11-15T01:41:25;5.05;;;4.25;;
22543;SDS011;11438;52.044;8.716;2022-11-15T01:43:53;6.40;;;4.10;;
22543;SDS011;11438;52.044;8.716;2022-11-15T01:48:46;5.45;;;4.32;;
22543;SDS011;11438;52.044;8.716;2022-11-15T01:51:14;6.78;;;4.72;;
22543;SDS011;11438;52.044;8.716;2022-11-15T01:53:43;6.22;;;4.35;;
22543;SDS011;11438;52.044;8.716;2022-11-15T01:56:13;5.90;;;4.75;;
22543;SDS011;11438;52.044;8.716;2022-11-15T01:58:42;7.75;;;4.65;;
22543;SDS011;11438;52.044;8.716;2022-11-15T02:01:10;8.40;;;5.22;;
22543;SDS011;11438;52.044;8.716;2022-11-15T02:03:49;11.02;;;5.22;;
22543;SDS011;11438;52.044;8.716;2022-11-15T02:06:22;7.10;;;4.47;;
22543;SDS011;11438;52.044;8.716;2022-11-15T02:08:49;9.68;;;4.70;;
22543;SDS011;11438;52.044;8.716;2022-11-15T02:11:15;10.50;;;4.85;;
22543;SDS011;11438;52.044;8.716;2022-11-15T02:13:40;8.75;;;5.25;;
22543;SDS011;11438;52.044;8.716;2022-11-15T02:16:27;8.73;;;5.13;;
22543;SDS011;11438;52.044;8.716;2022-11-15T02:19:31;6.82;;;4.80;;
22543;SDS011;11438;52.044;8.716;2022-11-15T02:27:42;6.93;;;4.80;;
22543;SDS011;11438;52.044;8.716;2022-11-15T02:30:35;6.38;;;4.63;;
22543;SDS011;11438;52.044;8.716;2022-11-15T02:36:00;8.27;;;5.05;;
22543;SDS011;11438;52.044;8.716;2022-11-15T02:38:34;9.45;;;5.22;;
22543;SDS011;11438;52.044;8.716;2022-11-15T02:41:30;8.85;;;5.30;;
22543;SDS011;11438;52.044;8.716;2022-11-15T02:44:13;7.32;;;4.82;;
22543;SDS011;11438;52.044;8.716;2022-11-15T02:52:14;6.13;;;4.35;;
22543;SDS011;11438;52.044;8.716;2022-11-15T02:54:55;9.73;;;5.82;;
22543;SDS011;11438;52.044;8.716;2022-11-15T03:00:09;8.40;;;4.70;;
22543;SDS011;11438;52.044;8.716;2022-11-15T03:08:31;8.55;;;5.30;;
22543;SDS011;11438;52.044;8.716;2022-11-15T03:11:15;6.60;;;5.38;;
22543;SDS011;11438;52.044;8.716;2022-11-15T03:13:53;10.82;;;6.45;;
22543;SDS011;11438;52.044;8.716;2022-11-15T03:16:57;9.10;;;5.47;;
22543;SDS011;11438;52.044;8.716;2022-11-15T03:19:45;11.70;;;6.00;;
22543;SDS011;11438;52.044;8.716;2022-11-15T03:22:16;10.18;;;6.03;;
22543;SDS011;11438;52.044;8.716;2022-11-15T03:24:45;9.10;;;6.35;;
22543;SDS011;11438;52.044;8.716;2022-11-15T03:27:15;9.15;;;5.90;;
22543;SDS011;11438;52.044;8.716;2022-11-15T03:29:47;9.15;;;5.60;;
22543;SDS011;11438;52.044;8.716;2022-11-15T03:32:19;9.65;;;6.88;;
22543;SDS011;11438;52.044;8.716;2022-11-15T03:35:01;9.75;;;6.70;;
22543;SDS011;11438;52.044;8.716;2022-11-15T03:38:10;11.98;;;6.60;;
22543;SDS011;11438;52.044;8.716;2022-11-15T03:40:49;15.13;;;6.18;;
22543;SDS011;11438;52.044;8.716;2022-11-15T03:43:35;10.85;;;6.40;;
22543;SDS011;11438;52.044;8.716;2022-11-15T03:49:10;11.63;;;6.95;;
22543;SDS011;11438;52.044;8.716;2022-11-15T03:51:39;10.30;;;6.63;;
22543;SDS011;11438;52.044;8.716;2022-11-15T03:54:05;10.85;;;7.00;;
22543;SDS011;11438;52.044;8.716;2022-11-15T03:56:31;9.50;;;7.00;;
22543;SDS011;11438;52.044;8.716;2022-11-15T03:58:56;10.32;;;6.38;;
22543;SDS011;11438;52.044;8.716;2022-11-15T04:01:22;13.10;;;7.43;;
22543;SDS011;11438;52.044;8.716;2022-11-15T04:03:48;11.48;;;7.15;;
22543;SDS011;11438;52.044;8.716;2022-11-15T04:06:13;11.88;;;6.68;;
22543;SDS011;11438;52.044;8.716;2022-11-15T04:08:39;8.63;;;6.20;;
22543;SDS011;11438;52.044;8.716;2022-11-15T04:11:04;10.77;;;6.93;;
22543;SDS011;11438;52.044;8.716;2022-11-15T04:13:30;10.05;;;7.18;;
22543;SDS011;11438;52.044;8.716;2022-11-15T04:15:55;10.15;;;7.00;;
22543;SDS011;11438;52.044;8.716;2022-11-15T04:18:21;12.25;;;6.50;;
22543;SDS011;11438;52.044;8.716;2022-11-15T04:20:47;11.55;;;6.78;;
22543;SDS011;11438;52.044;8.716;2022-11-15T04:23:31;9.07;;;6.65;;
22543;SDS011;11438;52.044;8.716;2022-11-15T04:26:15;8.52;;;6.10;;
22543;SDS011;11438;52.044;8.716;2022-11-15T04:28:43;8.15;;;6.38;;
22543;SDS011;11438;52.044;8.716;2022-11-15T04:31:27;10.30;;;6.50;;
22543;SDS011;11438;52.044;8.716;2022-11-15T04:33:53;10.90;;;7.18;;
22543;SDS011;11438;52.044;8.716;2022-11-15T04:36:20;9.90;;;6.72;;
22543;SDS011;11438;52.044;8.716;2022-11-15T04:39:05;11.55;;;6.97;;
22543;SDS011;11438;52.044;8.716;2022-11-15T04:41:31;10.32;;;6.93;;
22543;SDS011;11438;52.044;8.716;2022-11-15T04:43:56;9.70;;;7.25;;
22543;SDS011;11438;52.044;8.716;2022-11-15T04:46:22;12.50;;;7.68;;
22543;SDS011;11438;52.044;8.716;2022-11-15T04:48:48;10.63;;;7.45;;
22543;SDS011;11438;52.044;8.716;2022-11-15T04:51:15;10.93;;;6.85;;
22543;SDS011;11438;52.044;8.716;2022-11-15T04:53:40;10.50;;;7.57;;
22543;SDS011;11438;52.044;8.716;2022-11-15T04:56:06;10.80;;;7.03;;
22543;SDS011;11438;52.044;8.716;2022-11-15T04:58:32;11.90;;;7.18;;
22543;SDS011;11438;52.044;8.716;2022-11-15T05:00:58;10.45;;;7.13;;
22543;SDS011;11438;52.044;8.716;2022-11-15T05:03:39;11.45;;;7.13;;
22543;SDS011;11438;52.044;8.716;2022-11-15T05:06:23;8.70;;;6.55;;
22543;SDS011;11438;52.044;8.716;2022-11-15T05:08:49;9.52;;;6.90;;
22543;SDS011;11438;52.044;8.716;2022-11-15T05:11:15;12.30;;;7.15;;
22543;SDS011;11438;52.044;8.716;2022-11-15T05:13:40;11.38;;;6.28;;
22543;SDS011;11438;52.044;8.716;2022-11-15T05:16:06;10.05;;;6.45;;
22543;SDS011;11438;52.044;8.716;2022-11-15T05:18:31;9.13;;;6.82;;
22543;SDS011;11438;52.044;8.716;2022-11-15T05:21:03;11.25;;;6.90;;
22543;SDS011;11438;52.044;8.716;2022-11-15T05:23:32;8.07;;;6.38;;
22543;SDS011;11438;52.044;8.716;2022-11-15T05:25:59;13.00;;;7.30;;
22543;SDS011;11438;52.044;8.716;2022-11-15T05:28:25;9.02;;;6.72;;
22543;SDS011;11438;52.044;8.716;2022-11-15T05:30:50;9.13;;;6.57;;
22543;SDS011;11438;52.044;8.716;2022-11-15T05:33:16;9.15;;;7.13;;
22543;SDS011;11438;52.044;8.716;2022-11-15T05:35:42;10.30;;;6.72;;
22543;SDS011;11438;52.044;8.716;2022-11-15T05:38:20;10.93;;;7.38;;
22543;SDS011;11438;52.044;8.716;2022-11-15T05:40:45;10.35;;;6.97;;
22543;SDS011;11438;52.044;8.716;2022-11-15T05:43:11;8.68;;;6.32;;
22543;SDS011;11438;52.044;8.716;2022-11-15T05:45:37;9.63;;;6.28;;
22543;SDS011;11438;52.044;8.716;2022-11-15T05:48:04;9.77;;;7.10;;
22543;SDS011;11438;52.044;8.716;2022-11-15T05:50:32;9.85;;;6.93;;
22543;SDS011;11438;52.044;8.716;2022-11-15T05:53:01;11.45;;;6.97;;
22543;SDS011;11438;52.044;8.716;2022-11-15T05:55:27;9.88;;;6.57;;
22543;SDS011;11438;52.044;8.716;2022-11-15T05:57:53;10.18;;;6.50;;
22543;SDS011;11438;52.044;8.716;2022-11-15T06:00:18;9.30;;;6.88;;
22543;SDS011;11438;52.044;8.716;2022-11-15T06:02:44;9.43;;;6.13;;
22543;SDS011;11438;52.044;8.716;2022-11-15T06:05:09;9.45;;;6.13;;
22543;SDS011;11438;52.044;8.716;2022-11-15T06:07:35;9.13;;;5.75;;
22543;SDS011;11438;52.044;8.716;2022-11-15T06:10:00;7.80;;;5.68;;
22543;SDS011;11438;52.044;8.716;2022-11-15T06:12:26;8.45;;;5.68;;
22543;SDS011;11438;52.044;8.716;2022-11-15T06:14:52;6.20;;;4.80;;
22543;SDS011;11438;52.044;8.716;2022-11-15T06:17:17;9.90;;;5.43;;
22543;SDS011;11438;52.044;8.716;2022-11-15T06:19:43;7.65;;;4.90;;
22543;SDS011;11438;52.044;8.716;2022-11-15T06:22:08;8.32;;;4.82;;
22543;SDS011;11438;52.044;8.716;2022-11-15T06:24:34;5.90;;;5.00;;
22543;SDS011;11438;52.044;8.716;2022-11-15T06:27:00;6.90;;;4.40;;
22543;SDS011;11438;52.044;8.716;2022-11-15T06:29:25;6.53;;;4.15;;
22543;SDS011;11438;52.044;8.716;2022-11-15T06:31:51;6.10;;;4.40;;
22543;SDS011;11438;52.044;8.716;2022-11-15T06:34:17;7.90;;;4.65;;
22543;SDS011;11438;52.044;8.716;2022-11-15T06:36:43;6.45;;;4.63;;
22543;SDS011;11438;52.044;8.716;2022-11-15T06:39:08;7.18;;;4.25;;
22543;SDS011;11438;52.044;8.716;2022-11-15T06:41:34;7.28;;;4.45;;
22543;SDS011;11438;52.044;8.716;2022-11-15T06:44:00;7.70;;;4.53;;
22543;SDS011;11438;52.044;8.716;2022-11-15T06:46:26;7.63;;;5.47;;
22543;SDS011;11438;52.044;8.716;2022-11-15T06:48:52;9.85;;;5.85;;
22543;SDS011;11438;52.044;8.716;2022-11-15T06:51:17;8.35;;;5.75;;
22543;SDS011;11438;52.044;8.716;2022-11-15T06:53:43;9.73;;;6.03;;
22543;SDS011;11438;52.044;8.716;2022-11-15T06:56:09;9.63;;;5.90;;
22543;SDS011;11438;52.044;8.716;2022-11-15T06:58:35;9.07;;;5.72;;
22543;SDS011;11438;52.044;8.716;2022-11-15T07:01:01;8.57;;;5.93;;
22543;SDS011;11438;52.044;8.716;2022-11-15T07:03:28;10.40;;;5.68;;
22543;SDS011;11438;52.044;8.716;2022-11-15T07:05:55;10.98;;;6.55;;
22543;SDS011;11438;52.044;8.716;2022-11-15T07:08:22;10.82;;;5.93;;
22543;SDS011;11438;52.044;8.716;2022-11-15T07:10:48;7.40;;;5.53;;
22543;SDS011;11438;52.044;8.716;2022-11-15T07:13:15;6.80;;;5.05;;
22543;SDS011;11438;52.044;8.716;2022-11-15T07:15:40;8.52;;;5.80;;
22543;SDS011;11438;52.044;8.716;2022-11-15T07:18:06;9.52;;;5.65;;
22543;SDS011;11438;52.044;8.716;2022-11-15T07:20:31;8.52;;;5.65;;
22543;SDS011;11438;52.044;8.716;2022-11-15T07:23:01;10.82;;;5.63;;
22543;SDS011;11438;52.044;8.716;2022-11-15T07:25:28;9.38;;;5.80;;
22543;SDS011;11438;52.044;8.716;2022-11-15T07:27:54;8.25;;;5.40;;
22543;SDS011;11438;52.044;8.716;2022-11-15T07:30:23;9.80;;;5.28;;
22543;SDS011;11438;52.044;8.716;2022-11-15T07:32:59;8.95;;;6.15;;
22543;SDS011;11438;52.044;8.716;2022-11-15T07:35:26;11.32;;;5.50;;
22543;SDS011;11438;52.044;8.716;2022-11-15T07:37:56;8.43;;;5.18;;
22543;SDS011;11438;52.044;8.716;2022-11-15T07:40:26;8.63;;;5.38;;
22543;SDS011;11438;52.044;8.716;2022-11-15T07:42:58;6.68;;;4.90;;
22543;SDS011;11438;52.044;8.716;2022-11-15T07:45:28;8.55;;;5.22;;
22543;SDS011;11438;52.044;8.716;2022-11-15T07:47:53;8.23;;;5.43;;
22543;SDS011;11438;52.044;8.716;2022-11-15T07:50:21;7.82;;;5.05;;
22543;SDS011;11438;52.044;8.716;2022-11-15T07:52:54;6.38;;;4.72;;
22543;SDS011;11438;52.044;8.716;2022-11-15T07:55:24;7.97;;;5.13;;
22543;SDS011;11438;52.044;8.716;2022-11-15T07:57:52;7.78;;;4.63;;
22543;SDS011;11438;52.044;8.716;2022-11-15T08:00:17;7.80;;;5.03;;
22543;SDS011;11438;52.044;8.716;2022-11-15T08:02:44;7.97;;;4.65;;
22543;SDS011;11438;52.044;8.716;2022-11-15T08:05:10;6.88;;;5.10;;
22543;SDS011;11438;52.044;8.716;2022-11-15T08:07:35;8.20;;;4.47;;
22543;SDS011;11438;52.044;8.716;2022-11-15T08:10:03;5.50;;;4.35;;
22543;SDS011;11438;52.044;8.716;2022-11-15T08:12:30;6.38;;;4.13;;
22543;SDS011;11438;52.044;8.716;2022-11-15T08:14:56;4.20;;;3.10;;
22543;SDS011;11438;52.044;8.716;2022-11-15T08:17:23;4.75;;;3.40;;
22543;SDS011;11438;52.044;8.716;2022-11-15T08:19:49;3.90;;;3.28;;
22543;SDS011;11438;52.044;8.716;2022-11-15T08:22:15;4.72;;;2.92;;
22543;SDS011;11438;52.044;8.716;2022-11-15T08:24:40;4.47;;;2.97;;
22543;SDS011;11438;52.044;8.716;2022-11-15T08:27:06;3.30;;;2.50;;
22543;SDS011;11438;52.044;8.716;2022-11-15T08:29:40;5.20;;;3.10;;
22543;SDS011;11438;52.044;8.716;2022-11-15T08:32:09;5.72;;;3.92;;
22543;SDS011;11438;52.044;8.716;2022-11-15T08:34:36;6.57;;;3.55;;
22543;SDS011;11438;52.044;8.716;2022-11-15T08:37:02;5.95;;;3.70;;
22543;SDS011;11438;52.044;8.716;2022-11-15T08:39:27;6.20;;;3.83;;
22543;SDS011;11438;52.044;8.716;2022-11-15T08:41:53;5.57;;;3.72;;
22543;SDS011;11438;52.044;8.716;2022-11-15T08:44:19;4.47;;;2.78;;
22543;SDS011;11438;52.044;8.716;2022-11-15T08:46:47;3.58;;;2.30;;
22543;SDS011;11438;52.044;8.716;2022-11-15T08:49:13;2.67;;;1.75;;
22543;SDS011;11438;52.044;8.716;2022-11-15T08:51:39;1.92;;;1.50;;
22543;SDS011;11438;52.044;8.716;2022-11-15T08:54:04;2.20;;;1.60;;
22543;SDS011;11438;52.044;8.716;2022-11-15T08:56:30;3.03;;;1.60;;
22543;SDS011;11438;52.044;8.716;2022-11-15T08:58:55;2.88;;;1.77;;
22543;SDS011;11438;52.044;8.716;2022-11-15T09:01:21;3.58;;;1.83;;
22543;SDS011;11438;52.044;8.716;2022-11-15T09:03:47;2.10;;;1.58;;
22543;SDS011;11438;52.044;8.716;2022-11-15T09:06:13;2.38;;;1.83;;
22543;SDS011;11438;52.044;8.716;2022-11-15T09:08:39;1.75;;;1.35;;
22543;SDS011;11438;52.044;8.716;2022-11-15T09:11:06;2.50;;;1.55;;
22543;SDS011;11438;52.044;8.716;2022-11-15T09:13:33;3.22;;;1.52;;
22543;SDS011;11438;52.044;8.716;2022-11-15T09:16:02;2.67;;;1.55;;
22543;SDS011;11438;52.044;8.716;2022-11-15T09:18:28;3.75;;;1.65;;
22543;SDS011;11438;52.044;8.716;2022-11-15T09:20:57;3.45;;;1.40;;
22543;SDS011;11438;52.044;8.716;2022-11-15T09:23:23;2.55;;;1.50;;
22543;SDS011;11438;52.044;8.716;2022-11-15T09:25:49;3.63;;;1.42;;
22543;SDS011;11438;52.044;8.716;2022-11-15T09:28:15;2.15;;;1.45;;
22543;SDS011;11438;52.044;8.716;2022-11-15T09:30:40;1.40;;;1.17;;
22543;SDS011;11438;52.044;8.716;2022-11-15T09:33:07;2.08;;;1.27;;
22543;SDS011;11438;52.044;8.716;2022-11-15T09:35:33;1.52;;;1.00;;
22543;SDS011;11438;52.044;8.716;2022-11-15T09:37:59;2.08;;;1.10;;
22543;SDS011;11438;52.044;8.716;2022-11-15T09:40:24;2.28;;;1.02;;
22543;SDS011;11438;52.044;8.716;2022-11-15T09:48:48;1.88;;;1.25;;
22543;SDS011;11438;52.044;8.716;2022-11-15T09:51:18;2.92;;;1.30;;
22543;SDS011;11438;52.044;8.716;2022-11-15T09:56:31;1.75;;;1.00;;
22543;SDS011;11438;52.044;8.716;2022-11-15T10:00:01;1.67;;;1.30;;
22543;SDS011;11438;52.044;8.716;2022-11-15T10:02:22;2.75;;;1.42;;
22543;SDS011;11438;52.044;8.716;2022-11-15T10:05:19;1.63;;;1.17;;
22543;SDS011;11438;52.044;8.716;2022-11-15T10:13:13;3.40;;;1.10;;
22543;SDS011;11438;52.044;8.716;2022-11-15T10:15:48;1.83;;;0.95;;
22543;SDS011;11438;52.044;8.716;2022-11-15T10:18:21;1.20;;;0.90;;
22543;SDS011;11438;52.044;8.716;2022-11-15T10:20:57;1.40;;;0.80;;
22543;SDS011;11438;52.044;8.716;2022-11-15T10:23:24;1.73;;;1.15;;
22543;SDS011;11438;52.044;8.716;2022-11-15T10:25:55;1.48;;;1.02;;
22543;SDS011;11438;52.044;8.716;2022-11-15T10:28:27;1.60;;;0.90;;
22543;SDS011;11438;52.044;8.716;2022-11-15T10:30:54;2.45;;;0.95;;
22543;SDS011;11438;52.044;8.716;2022-11-15T10:33:38;1.45;;;1.13;;
22543;SDS011;11438;52.044;8.716;2022-11-15T10:38:54;1.90;;;1.00;;
22543;SDS011;11438;52.044;8.716;2022-11-15T10:41:42;2.13;;;1.13;;
22543;SDS011;11438;52.044;8.716;2022-11-15T10:46:33;1.67;;;0.90;;
22543;SDS011;11438;52.044;8.716;2022-11-15T10:49:34;2.63;;;0.90;;
22543;SDS011;11438;52.044;8.716;2022-11-15T10:51:58;2.13;;;0.90;;
22543;SDS011;11438;52.044;8.716;2022-11-15T10:54:38;1.27;;;0.95;;
22543;SDS011;11438;52.044;8.716;2022-11-15T10:57:08;1.58;;;1.10;;
22543;SDS011;11438;52.044;8.716;2022-11-15T10:59:45;2.25;;;1.00;;
22543;SDS011;11438;52.044;8.716;2022-11-15T11:04:54;1.50;;;1.00;;
22543;SDS011;11438;52.044;8.716;2022-11-15T11:07:22;2.55;;;1.05;;
22543;SDS011;11438;52.044;8.716;2022-11-15T11:09:56;1.95;;;0.90;;
22543;SDS011;11438;52.044;8.716;2022-11-15T11:12:28;2.00;;;1.10;;
22543;SDS011;11438;52.044;8.716;2022-11-15T11:14:56;1.30;;;1.00;;
22543;SDS011;11438;52.044;8.716;2022-11-15T11:17:36;1.67;;;1.00;;
22543;SDS011;11438;52.044;8.716;2022-11-15T11:29:02;2.47;;;1.00;;
22543;SDS011;11438;52.044;8.716;2022-11-15T11:31:52;1.67;;;1.00;;
22543;SDS011;11438;52.044;8.716;2022-11-15T11:34:46;1.08;;;0.93;;
22543;SDS011;11438;52.044;8.716;2022-11-15T11:39:56;3.47;;;1.10;;
22543;SDS011;11438;52.044;8.716;2022-11-15T11:42:50;2.67;;;1.17;;
22543;SDS011;11438;52.044;8.716;2022-11-15T11:48:12;1.33;;;0.98;;
22543;SDS011;11438;52.044;8.716;2022-11-15T11:50:39;2.30;;;0.93;;
22543;SDS011;11438;52.044;8.716;2022-11-15T11:56:04;1.63;;;1.05;;
22543;SDS011;11438;52.044;8.716;2022-11-15T11:58:41;2.05;;;1.15;;
22543;SDS011;11438;52.044;8.716;2022-11-15T12:04:34;2.08;;;0.90;;
22543;SDS011;11438;52.044;8.716;2022-11-15T12:07:04;1.27;;;1.05;;
22543;SDS011;11438;52.044;8.716;2022-11-15T12:12:44;1.35;;;0.90;;
22543;SDS011;11438;52.044;8.716;2022-11-15T12:15:18;0.98;;;0.77;;
22543;SDS011;11438;52.044;8.716;2022-11-15T12:17:47;1.73;;;0.90;;
22543;SDS011;11438;52.044;8.716;2022-11-15T12:20:17;0.95;;;0.85;;
22543;SDS011;11438;52.044;8.716;2022-11-15T12:28:15;10.13;;;1.08;;
22543;SDS011;11438;52.044;8.716;2022-11-15T12:30:54;2.17;;;0.90;;
22543;SDS011;11438;52.044;8.716;2022-11-15T12:33:29;1.65;;;0.75;;
22543;SDS011;11438;52.044;8.716;2022-11-15T12:38:59;1.23;;;0.90;;
22543;SDS011;11438;52.044;8.716;2022-11-15T12:41:31;0.98;;;0.80;;
22543;SDS011;11438;52.044;8.716;2022-11-15T12:44:05;3.08;;;0.90;;
22543;SDS011;11438;52.044;8.716;2022-11-15T12:52:07;1.27;;;0.80;;
22543;SDS011;11438;52.044;8.716;2022-11-15T13:02:27;2.90;;;0.80;;
22543;SDS011;11438;52.044;8.716;2022-11-15T13:15:36;3.33;;;1.40;;
22543;SDS011;11438;52.044;8.716;2022-11-15T13:18:26;1.98;;;1.48;;
22543;SDS011;11438;52.044;8.716;2022-11-15T13:21:01;3.17;;;1.30;;
22543;SDS011;11438;52.044;8.716;2022-11-15T13:23:53;3.10;;;1.40;;
22543;SDS011;11438;52.044;8.716;2022-11-15T13:26:20;2.03;;;1.30;;
22543;SDS011;11438;52.044;8.716;2022-11-15T13:28:47;3.35;;;1.60;;
22543;SDS011;11438;52.044;8.716;2022-11-15T13:33:44;1.92;;;1.27;;
22543;SDS011;11438;52.044;8.716;2022-11-15T13:36:26;4.30;;;1.40;;
22543;SDS011;11438;52.044;8.716;2022-11-15T13:39:02;2.22;;;1.23;;
22543;SDS011;11438;52.044;8.716;2022-11-15T13:41:44;2.63;;;1.52;;
22543;SDS011;11438;52.044;8.716;2022-11-15T13:44:18;2.45;;;1.10;;
22543;SDS011;11438;52.044;8.716;2022-11-15T13:46:45;5.53;;;1.70;;
22543;SDS011;11438;52.044;8.716;2022-11-15T13:49:11;2.22;;;1.40;;
22543;SDS011;11438;52.044;8.716;2022-11-15T13:51:42;3.63;;;1.45;;
22543;SDS011;11438;52.044;8.716;2022-11-15T13:57:02;2.75;;;1.42;;
22543;SDS011;11438;52.044;8.716;2022-11-15T13:59:37;2.47;;;1.48;;
22543;SDS011;11438;52.044;8.716;2022-11-15T14:02:14;1.58;;;1.30;;
22543;SDS011;11438;52.044;8.716;2022-11-15T14:04:53;2.90;;;1.60;;
22543;SDS011;11438;52.044;8.716;2022-11-15T14:07:22;1.70;;;1.38;;
22543;SDS011;11438;52.044;8.716;2022-11-15T14:09:50;2.17;;;1.40;;
22543;SDS011;11438;52.044;8.716;2022-11-15T14:12:27;1.88;;;1.27;;
22543;SDS011;11438;52.044;8.716;2022-11-15T14:14:55;2.50;;;1.75;;
22543;SDS011;11438;52.044;8.716;2022-11-15T14:17:40;1.70;;;1.40;;
22543;SDS011;11438;52.044;8.716;2022-11-15T14:22:53;2.63;;;1.50;;
22543;SDS011;11438;52.044;8.716;2022-11-15T14:25:31;1.60;;;1.30;;
22543;SDS011;11438;52.044;8.716;2022-11-15T14:28:09;2.33;;;1.40;;
22543;SDS011;11438;52.044;8.716;2022-11-15T14:30:35;2.17;;;1.30;;
22543;SDS011;11438;52.044;8.716;2022-11-15T14:33:00;2.30;;;1.50;;
22543;SDS011;11438;52.044;8.716;2022-11-15T14:35:27;3.45;;;1.63;;
22543;SDS011;11438;52.044;8.716;2022-11-15T14:37:53;5.05;;;1.90;;
22543;SDS011;11438;52.044;8.716;2022-11-15T14:40:19;3.72;;;1.50;;
22543;SDS011;11438;52.044;8.716;2022-11-15T14:42:47;2.00;;;1.40;;
22543;SDS011;11438;52.044;8.716;2022-11-15T14:45:20;3.45;;;1.50;;
22543;SDS011;11438;52.044;8.716;2022-11-15T14:47:47;2.60;;;1.20;;
22543;SDS011;11438;52.044;8.716;2022-11-15T14:50:19;2.42;;;1.30;;
22543;SDS011;11438;52.044;8.716;2022-11-15T14:52:46;2.20;;;1.30;;
22543;SDS011;11438;52.044;8.716;2022-11-15T14:55:23;2.88;;;1.30;;
22543;SDS011;11438;52.044;8.716;2022-11-15T14:57:53;1.73;;;1.35;;
22543;SDS011;11438;52.044;8.716;2022-11-15T15:00:20;4.85;;;1.40;;
22543;SDS011;11438;52.044;8.716;2022-11-15T15:02:46;2.28;;;1.40;;
22543;SDS011;11438;52.044;8.716;2022-11-15T15:07:57;2.22;;;1.25;;
22543;SDS011;11438;52.044;8.716;2022-11-15T15:10:23;1.83;;;1.13;;
22543;SDS011;11438;52.044;8.716;2022-11-15T15:12:50;2.17;;;1.40;;
22543;SDS011;11438;52.044;8.716;2022-11-15T15:15:21;5.30;;;1.40;;
22543;SDS011;11438;52.044;8.716;2022-11-15T15:17:49;2.83;;;1.40;;
22543;SDS011;11438;52.044;8.716;2022-11-15T15:20:15;1.58;;;1.20;;
22543;SDS011;11438;52.044;8.716;2022-11-15T15:22:41;1.48;;;1.00;;
22543;SDS011;11438;52.044;8.716;2022-11-15T15:27:53;1.73;;;0.95;;
22543;SDS011;11438;52.044;8.716;2022-11-15T15:30:20;2.75;;;1.25;;
22543;SDS011;11438;52.044;8.716;2022-11-15T15:32:46;2.80;;;1.10;;
22543;SDS011;11438;52.044;8.716;2022-11-15T15:35:12;2.40;;;1.17;;
22543;SDS011;11438;52.044;8.716;2022-11-15T15:37:39;2.40;;;1.10;;
22543;SDS011;11438;52.044;8.716;2022-11-15T15:40:24;1.50;;;1.00;;
22543;SDS011;11438;52.044;8.716;2022-11-15T15:42:50;2.05;;;1.17;;
22543;SDS011;11438;52.044;8.716;2022-11-15T15:45:16;1.90;;;1.20;;
22543;SDS011;11438;52.044;8.716;2022-11-15T15:47:43;1.52;;;0.73;;
22543;SDS011;11438;52.044;8.716;2022-11-15T15:52:54;1.60;;;1.00;;
22543;SDS011;11438;52.044;8.716;2022-11-15T15:55:21;1.95;;;1.02;;
22543;SDS011;11438;52.044;8.716;2022-11-15T15:57:47;1.50;;;1.05;;
22543;SDS011;11438;52.044;8.716;2022-11-15T16:00:13;2.70;;;1.10;;
22543;SDS011;11438;52.044;8.716;2022-11-15T16:02:40;1.30;;;1.00;;
22543;SDS011;11438;52.044;8.716;2022-11-15T16:05:06;2.30;;;1.10;;
22543;SDS011;11438;52.044;8.716;2022-11-15T16:07:32;1.73;;;1.35;;
22543;SDS011;11438;52.044;8.716;2022-11-15T16:09:58;3.72;;;1.55;;
22543;SDS011;11438;52.044;8.716;2022-11-15T16:12:31;5.38;;;2.33;;
22543;SDS011;11438;52.044;8.716;2022-11-15T16:14:58;6.13;;;3.00;;
22543;SDS011;11438;52.044;8.716;2022-11-15T16:17:25;5.93;;;2.38;;
22543;SDS011;11438;52.044;8.716;2022-11-15T16:19:54;2.92;;;1.90;;
22543;SDS011;11438;52.044;8.716;2022-11-15T16:22:20;3.03;;;1.70;;
22543;SDS011;11438;52.044;8.716;2022-11-15T16:24:45;2.40;;;1.58;;
22543;SDS011;11438;52.044;8.716;2022-11-15T16:27:15;1.60;;;1.30;;
22543;SDS011;11438;52.044;8.716;2022-11-15T16:29:42;2.47;;;1.35;;
22543;SDS011;11438;52.044;8.716;2022-11-15T16:32:08;1.63;;;1.17;;
22543;SDS011;11438;52.044;8.716;2022-11-15T16:34:34;2.25;;;1.40;;
22543;SDS011;11438;52.044;8.716;2022-11-15T16:37:00;2.70;;;1.50;;
22543;SDS011;11438;52.044;8.716;2022-11-15T16:39:25;2.95;;;1.48;;
22543;SDS011;11438;52.044;8.716;2022-11-15T16:41:54;2.47;;;1.58;;
22543;SDS011;11438;52.044;8.716;2022-11-15T16:44:23;2.65;;;1.35;;
22543;SDS011;11438;52.044;8.716;2022-11-15T16:46:49;5.30;;;2.78;;
22543;SDS011;11438;52.044;8.716;2022-11-15T16:49:16;4.50;;;2.90;;
22543;SDS011;11438;52.044;8.716;2022-11-15T16:51:43;3.25;;;2.22;;
22543;SDS011;11438;52.044;8.716;2022-11-15T16:54:10;3.10;;;1.85;;
22543;SDS011;11438;52.044;8.716;2022-11-15T16:56:36;3.17;;;2.05;;
22543;SDS011;11438;52.044;8.716;2022-11-15T16:59:02;5.00;;;2.10;;
22543;SDS011;11438;52.044;8.716;2022-11-15T17:01:29;3.03;;;2.35;;
22543;SDS011;11438;52.044;8.716;2022-11-15T17:03:57;4.28;;;2.65;;